Terminal Aerodrome Forecast
Issued by NWS

Home | Current Version | Previous Version | Text Only | Print | Product List | Glossary On
Versions: 1 2 3 4 5 6 7 8 9 10 11 12
201
FTUS42 KMLB 220529
TAFFPR
TAF
KFPR 220529Z 2206/2306 09014G20KT P6SM VCSH SCT020 BKN030
     FM220900 09011KT P6SM VCSH SCT015 BKN025
     FM221300 11013G18KT P6SM VCSH SCT025 BKN035
     FM221800 11016G22KT P6SM VCTS SCT020CB BKN040
     FM230000 11010KT P6SM VCSH SCT025 BKN060=

USA.gov is the U.S. government's official web portal to all federal, state and local government web resources and services.